Time;durP1;ratioP1;P1;durP2;ratioP2;P2;SDS_P1;SDS_P2;PMS_P1;PMS_P2;Temp;Humidity;BMP_temperature;BMP_pressure;BME280_temperature;BME280_humidity;BME280_pressure;Samples;Min_cycle;Max_cycle;Signal;HPM_P1;HPM_P2
2023/01/16 00:01:20;;;;;;;15.13;8.90;;;;;;;;;;766497;180;642781;-83
2023/01/16 00:03:46;;;;;;;13.10;8.77;;;;;;;;;;764594;181;713666;-81
2023/01/16 00:06:12;;;;;;;13.33;8.83;;;;;;;;;;766373;181;724095;-82
2023/01/16 00:08:38;;;;;;;14.93;8.83;;;;;;;;;;771559;180;624888;-83
2023/01/16 00:11:04;;;;;;;12.10;8.50;;;;;;;;;;764080;184;666174;-83
2023/01/16 00:13:29;;;;;;;14.57;8.97;;;;;;;;;;764844;184;642553;-83
2023/01/16 00:15:55;;;;;;;12.50;8.60;;;;;;;;;;764388;184;692423;-83
2023/01/16 00:18:21;;;;;;;13.20;9.37;;;;;;;;;;765449;181;655418;-83
2023/01/16 00:20:48;;;;;;;14.00;9.45;;;;;;;;;;761326;181;638775;-82
2023/01/16 00:23:13;;;;;;;16.50;8.93;;;;;;;;;;762198;181;638145;-84
2023/01/16 00:25:40;;;;;;;13.70;8.93;;;;;;;;;;767529;184;620746;-83
2023/01/16 00:28:05;;;;;;;14.63;8.57;;;;;;;;;;768548;181;641798;-83
2023/01/16 00:30:30;;;;;;;13.30;9.33;;;;;;;;;;767345;181;645354;-83
2023/01/16 00:32:56;;;;;;;16.60;9.97;;;;;;;;;;764259;183;627576;-83
2023/01/16 00:35:22;;;;;;;14.37;10.57;;;;;;;;;;764057;183;648897;-83
2023/01/16 00:37:48;;;;;;;15.40;10.33;;;;;;;;;;766301;181;622700;-83
2023/01/16 00:40:14;;;;;;;14.40;10.73;;;;;;;;;;752675;187;628292;-84
2023/01/16 00:42:40;;;;;;;18.30;12.20;;;;;;;;;;747906;187;837764;-83
2023/01/16 00:45:06;;;;;;;15.13;10.37;;;;;;;;;;758485;181;673710;-82
2023/01/16 00:47:32;;;;;;;19.60;11.20;;;;;;;;;;757756;183;625107;-83
2023/01/16 00:49:58;;;;;;;17.80;11.83;;;;;;;;;;766998;181;622926;-83
2023/01/16 00:52:24;;;;;;;19.97;12.43;;;;;;;;;;765181;181;662958;-83
2023/01/16 00:54:49;;;;;;;19.67;11.33;;;;;;;;;;757080;186;654919;-83
2023/01/16 00:57:15;;;;;;;17.73;13.10;;;;;;;;;;752436;185;637786;-83
2023/01/16 00:59:41;;;;;;;18.80;11.87;;;;;;;;;;764652;181;626345;-84
2023/01/16 01:02:07;;;;;;;18.90;12.03;;;;;;;;;;763354;184;658116;-83
2023/01/16 01:04:33;;;;;;;17.30;11.20;;;;;;;;;;764006;184;650386;-83
2023/01/16 01:06:59;;;;;;;17.57;12.23;;;;;;;;;;754176;186;651591;-83
2023/01/16 01:09:24;;;;;;;15.48;10.32;;;;;;;;;;763271;183;623435;-82
2023/01/16 01:11:50;;;;;;;13.17;8.70;;;;;;;;;;764232;183;642935;-83
2023/01/16 01:14:16;;;;;;;14.77;9.90;;;;;;;;;;771739;182;667940;-81
2023/01/16 01:16:42;;;;;;;17.93;11.33;;;;;;;;;;769735;181;628787;-81
2023/01/16 01:19:08;;;;;;;14.97;10.70;;;;;;;;;;766713;183;639553;-81
2023/01/16 01:21:34;;;;;;;13.10;9.27;;;;;;;;;;764754;182;639426;-81
2023/01/16 01:24:00;;;;;;;16.03;9.60;;;;;;;;;;762346;184;645744;-82
2023/01/16 01:26:26;;;;;;;15.53;11.30;;;;;;;;;;764610;182;674973;-81
2023/01/16 01:28:51;;;;;;;14.13;9.70;;;;;;;;;;758318;184;670982;-81
2023/01/16 01:31:17;;;;;;;18.43;11.70;;;;;;;;;;754928;183;623916;-81
2023/01/16 01:33:43;;;;;;;17.83;12.00;;;;;;;;;;766535;183;617169;-80
2023/01/16 01:36:09;;;;;;;18.10;11.40;;;;;;;;;;763803;184;635022;-81
2023/01/16 01:38:35;;;;;;;18.83;11.03;;;;;;;;;;756902;187;618324;-81
2023/01/16 01:41:01;;;;;;;17.87;11.77;;;;;;;;;;754833;186;637746;-80
2023/01/16 01:43:33;;;;;;;21.53;11.53;;;;;;;;;;754814;186;628878;-80
2023/01/16 01:45:58;;;;;;;22.30;11.27;;;;;;;;;;766269;183;627705;-80
2023/01/16 01:48:25;;;;;;;15.70;10.23;;;;;;;;;;766064;184;642659;-81
2023/01/16 01:50:57;;;;;;;15.80;10.77;;;;;;;;;;767327;181;625494;-82
2023/01/16 01:53:24;;;;;;;18.17;11.20;;;;;;;;;;768507;180;633652;-81
2023/01/16 01:55:50;;;;;;;20.03;12.40;;;;;;;;;;767081;183;652079;-80
2023/01/16 01:58:20;;;;;;;23.07;13.40;;;;;;;;;;762648;184;632883;-80
2023/01/16 02:00:42;;;;;;;21.73;12.87;;;;;;;;;;764370;183;625851;-81
2023/01/16 02:03:08;;;;;;;20.37;13.70;;;;;;;;;;769552;183;625999;-81
2023/01/16 02:05:36;;;;;;;18.43;11.80;;;;;;;;;;765125;181;628362;-81
2023/01/16 02:08:02;;;;;;;17.07;12.00;;;;;;;;;;762677;183;660677;-81
2023/01/16 02:10:33;;;;;;;21.00;11.93;;;;;;;;;;765029;184;622960;-81
2023/01/16 02:12:59;;;;;;;20.77;14.20;;;;;;;;;;765534;185;615298;-82
2023/01/16 02:15:25;;;;;;;18.90;11.97;;;;;;;;;;762962;185;617562;-81
2023/01/16 02:20:22;;;;;;;19.83;12.90;;;;;;;;;;767213;184;634081;-82
2023/01/16 02:22:52;;;;;;;16.70;12.87;;;;;;;;;;771342;180;633163;-81
2023/01/16 02:25:22;;;;;;;17.90;10.87;;;;;;;;;;770554;183;627030;-81
2023/01/16 02:27:47;;;;;;;17.80;13.47;;;;;;;;;;769971;182;668569;-81
2023/01/16 02:30:14;;;;;;;18.13;11.60;;;;;;;;;;767928;183;623303;-81
2023/01/16 02:32:40;;;;;;;24.97;11.80;;;;;;;;;;765320;183;650356;-81
2023/01/16 02:35:23;;;;;;;18.50;12.30;;;;;;;;;;750781;186;625717;-80
2023/01/16 02:37:49;;;;;;;18.83;11.83;;;;;;;;;;745214;187;635278;-81
2023/01/16 02:40:17;;;;;;;21.27;12.50;;;;;;;;;;753946;185;645212;-82
2023/01/16 02:42:43;;;;;;;16.90;12.53;;;;;;;;;;767832;184;632207;-81
2023/01/16 02:45:10;;;;;;;17.30;11.80;;;;;;;;;;761629;184;631947;-81
2023/01/16 02:47:36;;;;;;;18.40;12.80;;;;;;;;;;757868;183;649567;-81
2023/01/16 02:50:18;;;;;;;19.40;11.93;;;;;;;;;;767968;181;647533;-81
2023/01/16 02:52:44;;;;;;;20.90;12.23;;;;;;;;;;763290;181;663023;-81
2023/01/16 02:55:10;;;;;;;19.67;12.90;;;;;;;;;;766062;180;655065;-81
2023/01/16 02:57:36;;;;;;;21.67;13.37;;;;;;;;;;766580;183;616240;-83
2023/01/16 03:00:02;;;;;;;17.90;11.20;;;;;;;;;;765052;181;628627;-81
2023/01/16 03:02:28;;;;;;;17.73;11.43;;;;;;;;;;766556;184;661298;-82
2023/01/16 03:04:54;;;;;;;19.43;12.07;;;;;;;;;;765845;182;634646;-81
2023/01/16 03:07:20;;;;;;;18.57;10.37;;;;;;;;;;767999;182;637245;-82
2023/01/16 03:10:01;;;;;;;17.83;10.50;;;;;;;;;;770926;183;613090;-81
2023/01/16 03:12:33;;;;;;;19.20;10.23;;;;;;;;;;762082;183;631003;-81
2023/01/16 03:15:01;;;;;;;14.10;9.03;;;;;;;;;;769400;180;648550;-82
2023/01/16 03:17:33;;;;;;;15.70;12.40;;;;;;;;;;771156;181;630948;-80
2023/01/16 03:20:16;;;;;;;18.30;11.50;;;;;;;;;;768390;180;634595;-84
2023/01/16 03:22:42;;;;;;;16.10;10.40;;;;;;;;;;763094;183;815833;-82
2023/01/16 03:25:09;;;;;;;16.20;12.37;;;;;;;;;;765239;184;637662;-84
2023/01/16 03:27:50;;;;;;;19.13;12.23;;;;;;;;;;758295;184;626165;-83
2023/01/16 03:30:32;;;;;;;15.53;9.63;;;;;;;;;;753013;183;641563;-83
2023/01/16 03:32:58;;;;;;;16.33;10.70;;;;;;;;;;755450;181;625763;-82
2023/01/16 03:35:25;;;;;;;18.90;12.80;;;;;;;;;;753233;186;636056;-82
2023/01/16 03:37:52;;;;;;;19.80;11.73;;;;;;;;;;750840;183;666363;-80
2023/01/16 03:40:18;;;;;;;17.27;11.00;;;;;;;;;;765102;181;627680;-82
2023/01/16 03:42:44;;;;;;;15.87;10.83;;;;;;;;;;755337;183;622628;-81
2023/01/16 03:45:10;;;;;;;13.97;9.40;;;;;;;;;;765566;181;702415;-81
2023/01/16 03:47:36;;;;;;;18.73;11.47;;;;;;;;;;765899;181;620716;-82
2023/01/16 03:50:02;;;;;;;18.50;10.68;;;;;;;;;;755195;183;631833;-82
2023/01/16 03:52:27;;;;;;;18.10;11.07;;;;;;;;;;759553;184;640816;-83
2023/01/16 03:55:09;;;;;;;19.40;11.90;;;;;;;;;;766369;180;664690;-82
2023/01/16 03:57:35;;;;;;;17.67;10.80;;;;;;;;;;769176;183;628554;-81
2023/01/16 04:00:01;;;;;;;16.03;10.87;;;;;;;;;;763324;181;666279;-84
2023/01/16 04:02:27;;;;;;;18.37;10.90;;;;;;;;;;752499;183;643851;-82
2023/01/16 04:04:55;;;;;;;15.80;10.77;;;;;;;;;;747552;183;616360;-82
2023/01/16 04:07:27;;;;;;;19.43;11.17;;;;;;;;;;744413;183;667442;-84
2023/01/16 04:09:54;;;;;;;14.33;9.73;;;;;;;;;;748099;186;629747;-82
2023/01/16 04:12:20;;;;;;;14.37;9.10;;;;;;;;;;756770;186;618033;-83
2023/01/16 04:14:46;;;;;;;15.73;10.30;;;;;;;;;;762812;184;616970;-83
2023/01/16 04:17:11;;;;;;;20.43;9.60;;;;;;;;;;772045;183;26564;-82
2023/01/16 04:19:37;;;;;;;12.20;9.70;;;;;;;;;;753084;187;711285;-84
2023/01/16 04:22:06;;;;;;;12.57;9.83;;;;;;;;;;743810;186;637460;-83
2023/01/16 04:24:32;;;;;;;18.37;10.93;;;;;;;;;;767388;182;634777;-85
2023/01/16 04:26:58;;;;;;;14.77;10.40;;;;;;;;;;767473;182;621591;-83
2023/01/16 04:29:24;;;;;;;18.37;10.57;;;;;;;;;;764890;183;634056;-82
2023/01/16 04:31:50;;;;;;;17.30;8.23;;;;;;;;;;765752;182;902343;-83
2023/01/16 04:34:17;;;;;;;22.57;13.30;;;;;;;;;;762846;183;762447;-83
2023/01/16 04:36:42;;;;;;;22.33;12.53;;;;;;;;;;759741;180;925021;-84
2023/01/16 04:39:09;;;;;;;19.70;13.10;;;;;;;;;;753561;181;3635153;-83
2023/01/16 04:41:36;;;;;;;21.00;12.17;;;;;;;;;;759273;183;674096;-82
2023/01/16 04:44:02;;;;;;;25.97;14.40;;;;;;;;;;764476;180;654770;-83
2023/01/16 04:46:28;;;;;;;23.33;13.33;;;;;;;;;;761920;184;690145;-84
2023/01/16 04:48:53;;;;;;;24.07;12.90;;;;;;;;;;760784;183;614795;-82
2023/01/16 04:51:19;;;;;;;19.57;12.07;;;;;;;;;;762351;181;712771;-83
2023/01/16 04:53:45;;;;;;;16.80;9.30;;;;;;;;;;762495;184;712121;-82
2023/01/16 04:56:11;;;;;;;17.70;10.87;;;;;;;;;;764291;183;832656;-83
2023/01/16 04:58:37;;;;;;;19.02;10.35;;;;;;;;;;760487;184;646389;-85
2023/01/16 05:01:03;;;;;;;96.43;55.27;;;;;;;;;;758950;183;817250;-83
2023/01/16 05:03:29;;;;;;;21.37;13.97;;;;;;;;;;761012;183;652620;-84
2023/01/16 05:05:54;;;;;;;28.60;17.07;;;;;;;;;;770062;181;626132;-85
2023/01/16 05:08:25;;;;;;;17.20;12.17;;;;;;;;;;760563;180;633154;-82
2023/01/16 05:10:46;;;;;;;18.97;13.60;;;;;;;;;;759580;184;713837;-82
2023/01/16 05:13:12;;;;;;;19.60;11.00;;;;;;;;;;766620;184;640548;-84
2023/01/16 05:15:38;;;;;;;18.63;12.47;;;;;;;;;;763674;184;642143;-83
2023/01/16 05:18:05;;;;;;;14.87;10.90;;;;;;;;;;762517;181;808083;-82
2023/01/16 05:20:30;;;;;;;29.83;18.07;;;;;;;;;;765430;184;714296;-84
2023/01/16 05:22:56;;;;;;;41.77;24.70;;;;;;;;;;763240;183;673958;-83
2023/01/16 05:25:22;;;;;;;19.73;11.30;;;;;;;;;;762836;184;613589;-82
2023/01/16 05:27:48;;;;;;;33.50;17.60;;;;;;;;;;764270;181;666985;-82
2023/01/16 05:30:14;;;;;;;23.63;14.17;;;;;;;;;;765619;183;717593;-84
2023/01/16 05:32:40;;;;;;;22.33;13.57;;;;;;;;;;766386;180;642318;-84
2023/01/16 05:35:06;;;;;;;18.77;10.83;;;;;;;;;;757162;182;676413;-83
2023/01/16 05:37:32;;;;;;;23.20;13.60;;;;;;;;;;768089;181;749277;-83
2023/01/16 05:39:59;;;;;;;11.67;8.83;;;;;;;;;;767729;183;614883;-82
2023/01/16 05:42:24;;;;;;;18.17;12.53;;;;;;;;;;768882;180;709505;-84
2023/01/16 05:44:49;;;;;;;21.30;11.37;;;;;;;;;;755935;182;659343;-82
2023/01/16 05:47:16;;;;;;;17.87;12.10;;;;;;;;;;761509;181;654044;-83
2023/01/16 05:49:41;;;;;;;19.70;12.90;;;;;;;;;;763278;180;624319;-83
2023/01/16 05:52:07;;;;;;;20.30;12.27;;;;;;;;;;764926;180;687515;-84
2023/01/16 05:54:33;;;;;;;19.03;12.47;;;;;;;;;;759093;182;704292;-84
2023/01/16 05:56:59;;;;;;;18.03;11.17;;;;;;;;;;751276;185;629228;-84
2023/01/16 05:59:25;;;;;;;22.87;12.03;;;;;;;;;;764462;184;681723;-83
2023/01/16 06:01:51;;;;;;;21.20;12.00;;;;;;;;;;767646;180;690251;-83
2023/01/16 06:04:18;;;;;;;26.90;12.83;;;;;;;;;;762529;184;859881;-84
2023/01/16 06:06:43;;;;;;;15.60;10.70;;;;;;;;;;751106;185;777104;-83
2023/01/16 06:09:08;;;;;;;16.00;10.40;;;;;;;;;;757118;183;643938;-84
2023/01/16 06:11:34;;;;;;;17.73;11.47;;;;;;;;;;763041;180;617923;-82
2023/01/16 06:14:03;;;;;;;17.67;11.47;;;;;;;;;;766113;183;649662;-83
2023/01/16 06:16:27;;;;;;;14.33;10.40;;;;;;;;;;764557;181;615957;-84
2023/01/16 06:18:53;;;;;;;14.90;10.10;;;;;;;;;;760672;184;632600;-84
2023/01/16 06:21:18;;;;;;;15.33;10.20;;;;;;;;;;766604;182;663812;-83
2023/01/16 06:23:44;;;;;;;16.37;11.83;;;;;;;;;;759212;186;643560;-83
2023/01/16 06:26:10;;;;;;;20.20;10.00;;;;;;;;;;753556;185;620504;-83
2023/01/16 06:28:36;;;;;;;20.40;10.67;;;;;;;;;;763187;181;638234;-83
2023/01/16 06:31:02;;;;;;;15.63;11.30;;;;;;;;;;763471;181;648433;-84
2023/01/16 06:33:28;;;;;;;20.87;10.77;;;;;;;;;;768550;184;624548;-84
2023/01/16 06:35:54;;;;;;;15.27;9.40;;;;;;;;;;762033;182;633144;-82
2023/01/16 06:38:19;;;;;;;16.97;11.27;;;;;;;;;;765691;181;637931;-85
2023/01/16 06:40:45;;;;;;;22.23;11.87;;;;;;;;;;766835;184;708201;-85
2023/01/16 06:43:11;;;;;;;16.50;10.47;;;;;;;;;;767188;180;626440;-83
2023/01/16 06:45:37;;;;;;;13.10;10.00;;;;;;;;;;767283;183;616542;-83
2023/01/16 06:48:03;;;;;;;20.13;10.40;;;;;;;;;;762683;184;614788;-83
2023/01/16 06:50:29;;;;;;;16.37;10.50;;;;;;;;;;765774;184;664695;-82
2023/01/16 06:52:54;;;;;;;18.73;12.40;;;;;;;;;;763173;181;624836;-83
2023/01/16 06:55:20;;;;;;;14.37;10.70;;;;;;;;;;764186;181;651159;-83
2023/01/16 06:57:47;;;;;;;20.00;11.10;;;;;;;;;;764914;184;631439;-84
2023/01/16 07:00:13;;;;;;;18.27;12.90;;;;;;;;;;754058;186;631605;-82
2023/01/16 07:02:39;;;;;;;18.10;11.60;;;;;;;;;;758890;185;646182;-83
2023/01/16 07:05:05;;;;;;;18.20;12.10;;;;;;;;;;766063;185;713614;-84
2023/01/16 07:07:30;;;;;;;18.20;11.47;;;;;;;;;;765460;183;655024;-83
2023/01/16 07:09:56;;;;;;;17.37;13.63;;;;;;;;;;765143;184;714058;-83
2023/01/16 07:12:22;;;;;;;18.53;10.60;;;;;;;;;;762681;180;666641;-83
2023/01/16 07:24:54;;;;;;;17.70;11.50;;;;;;;;;;748830;186;636450;-82
2023/01/16 07:27:20;;;;;;;17.40;12.00;;;;;;;;;;746501;186;650965;-83
2023/01/16 07:29:46;;;;;;;14.83;11.13;;;;;;;;;;746781;187;649604;-83
2023/01/16 07:32:12;;;;;;;20.17;12.03;;;;;;;;;;751202;186;661424;-84
2023/01/16 07:34:38;;;;;;;16.20;11.53;;;;;;;;;;759141;183;634839;-85
2023/01/16 07:37:05;;;;;;;18.80;12.07;;;;;;;;;;757050;181;709300;-84
2023/01/16 07:39:29;;;;;;;19.37;12.13;;;;;;;;;;765371;183;646307;-83
2023/01/16 07:41:55;;;;;;;19.93;13.00;;;;;;;;;;769725;183;709159;-84
2023/01/16 07:44:21;;;;;;;17.07;10.10;;;;;;;;;;747139;186;634734;-84
2023/01/16 07:46:47;;;;;;;17.57;10.73;;;;;;;;;;757135;181;647780;-83
2023/01/16 07:49:13;;;;;;;17.60;10.40;;;;;;;;;;768135;180;670805;-83
2023/01/16 07:51:39;;;;;;;17.17;11.57;;;;;;;;;;765427;183;637397;-82
2023/01/16 07:54:05;;;;;;;18.37;9.30;;;;;;;;;;764968;183;640800;-82
2023/01/16 07:56:30;;;;;;;17.67;12.63;;;;;;;;;;762965;184;634746;-83
2023/01/16 07:58:57;;;;;;;29.23;10.57;;;;;;;;;;750396;188;655909;-82
2023/01/16 08:01:22;;;;;;;16.47;10.63;;;;;;;;;;755192;185;680669;-83
2023/01/16 08:03:48;;;;;;;13.03;9.40;;;;;;;;;;748794;186;723405;-83
2023/01/16 08:06:14;;;;;;;15.37;8.73;;;;;;;;;;764862;182;619970;-83
2023/01/16 08:08:40;;;;;;;14.17;9.00;;;;;;;;;;764016;184;621074;-82
2023/01/16 08:11:38;;;;;;;16.07;9.90;;;;;;;;;;761602;184;630643;-82
2023/01/16 08:13:46;;;;;;;16.30;10.47;;;;;;;;;;761044;184;623575;-83
2023/01/16 08:16:12;;;;;;;25.10;9.47;;;;;;;;;;768588;181;661589;-82
2023/01/16 08:18:38;;;;;;;13.17;9.43;;;;;;;;;;759525;183;714211;-83
2023/01/16 08:21:04;;;;;;;13.90;9.10;;;;;;;;;;752708;185;812334;-83
2023/01/16 08:23:30;;;;;;;12.70;9.00;;;;;;;;;;761679;184;714849;-82
2023/01/16 08:25:56;;;;;;;11.03;8.80;;;;;;;;;;763970;184;633481;-82
2023/01/16 08:28:21;;;;;;;12.37;8.20;;;;;;;;;;762769;184;658890;-84
2023/01/16 08:30:47;;;;;;;15.87;8.47;;;;;;;;;;752396;187;628879;-81
2023/01/16 08:33:13;;;;;;;15.20;8.43;;;;;;;;;;771472;183;621598;-81
2023/01/16 08:35:39;;;;;;;13.27;9.00;;;;;;;;;;769445;183;634860;-84
2023/01/16 08:38:05;;;;;;;12.90;8.47;;;;;;;;;;765865;181;714221;-84
2023/01/16 08:40:31;;;;;;;13.73;9.97;;;;;;;;;;766021;184;634810;-84
2023/01/16 08:53:03;;;;;;;22.27;13.70;;;;;;;;;;771900;183;633331;-83
2023/01/16 08:55:28;;;;;;;23.80;14.10;;;;;;;;;;761517;183;633864;-82
2023/01/16 08:57:56;;;;;;;64.73;31.10;;;;;;;;;;761183;181;625453;-83
2023/01/16 09:00:21;;;;;;;71.80;34.27;;;;;;;;;;766149;182;652824;-85
2023/01/16 09:02:46;;;;;;;43.30;26.03;;;;;;;;;;765868;183;654842;-83
2023/01/16 09:05:13;;;;;;;59.43;31.53;;;;;;;;;;768051;182;630018;-83
2023/01/16 09:07:38;;;;;;;36.37;22.97;;;;;;;;;;758323;185;637291;-82
2023/01/16 09:10:04;;;;;;;47.33;27.50;;;;;;;;;;746939;187;657767;-82
2023/01/16 09:15:02;;;;;;;70.93;42.40;;;;;;;;;;755867;186;664497;-82
2023/01/16 09:17:28;;;;;;;64.20;39.90;;;;;;;;;;757293;186;624192;-83
2023/01/16 09:19:54;;;;;;;54.33;38.53;;;;;;;;;;748005;187;626593;-84
2023/01/16 09:22:19;;;;;;;124.70;60.27;;;;;;;;;;749073;186;648127;-84
2023/01/16 09:24:45;;;;;;;44.37;29.70;;;;;;;;;;765799;183;627219;-82
2023/01/16 09:27:14;;;;;;;57.67;37.00;;;;;;;;;;757626;184;627029;-84
2023/01/16 09:29:40;;;;;;;37.47;25.47;;;;;;;;;;759517;181;642751;-84
2023/01/16 09:32:08;;;;;;;29.90;20.23;;;;;;;;;;754030;184;691611;-82
2023/01/16 09:34:31;;;;;;;25.97;17.70;;;;;;;;;;746066;187;637106;-82
2023/01/16 09:36:58;;;;;;;16.47;11.80;;;;;;;;;;759629;181;634614;-82
2023/01/16 09:39:23;;;;;;;13.13;9.90;;;;;;;;;;763733;184;816716;-84
2023/01/16 09:44:21;;;;;;;21.73;13.07;;;;;;;;;;753528;185;638824;-84
2023/01/16 09:46:47;;;;;;;21.95;13.98;;;;;;;;;;770186;183;624357;-82
2023/01/16 09:49:13;;;;;;;24.23;16.23;;;;;;;;;;764436;183;662114;-83
2023/01/16 09:51:39;;;;;;;20.13;12.80;;;;;;;;;;765737;184;635826;-83
2023/01/16 09:59:09;;;;;;;15.70;11.77;;;;;;;;;;763572;184;630888;-83
2023/01/16 10:01:35;;;;;;;17.20;10.10;;;;;;;;;;764994;184;815767;-84
2023/01/16 10:04:01;;;;;;;18.30;12.20;;;;;;;;;;762847;184;653359;-84
2023/01/16 10:06:27;;;;;;;12.53;9.53;;;;;;;;;;761605;184;632586;-84
2023/01/16 10:09:09;;;;;;;22.97;13.87;;;;;;;;;;765441;184;646489;-82
2023/01/16 10:11:35;;;;;;;22.90;12.80;;;;;;;;;;761242;184;658620;-83
2023/01/16 10:14:06;;;;;;;21.67;15.43;;;;;;;;;;764990;181;633917;-84
2023/01/16 10:16:47;;;;;;;19.87;12.33;;;;;;;;;;762424;181;633828;-82
2023/01/16 10:19:13;;;;;;;18.10;11.30;;;;;;;;;;754192;184;623816;-83
2023/01/16 10:21:39;;;;;;;16.93;9.63;;;;;;;;;;755281;183;658946;-84
2023/01/16 10:24:09;;;;;;;10.47;6.13;;;;;;;;;;764004;183;627471;-82
2023/01/16 10:26:36;;;;;;;6.97;4.87;;;;;;;;;;755776;183;639485;-82
2023/01/16 10:29:02;;;;;;;8.23;5.00;;;;;;;;;;759523;183;653529;-82
2023/01/16 10:31:28;;;;;;;8.27;4.03;;;;;;;;;;757761;186;620206;-83
2023/01/16 10:33:56;;;;;;;4.97;3.00;;;;;;;;;;755598;182;2224365;-82
2023/01/16 10:36:20;;;;;;;5.47;3.97;;;;;;;;;;762097;183;654259;-83
2023/01/16 10:38:54;;;;;;;7.77;3.40;;;;;;;;;;759685;183;795189;-84
2023/01/16 10:51:37;;;;;;;4.17;3.00;;;;;;;;;;756222;183;643176;-81
2023/01/16 10:54:03;;;;;;;4.85;2.83;;;;;;;;;;767663;183;633139;-83
2023/01/16 10:56:32;;;;;;;4.43;3.10;;;;;;;;;;763550;180;647575;-83
2023/01/16 10:58:55;;;;;;;3.97;3.00;;;;;;;;;;764325;184;637102;-82
2023/01/16 11:01:21;;;;;;;4.37;2.80;;;;;;;;;;762997;184;648088;-82
2023/01/16 11:03:47;;;;;;;5.20;3.00;;;;;;;;;;767916;180;626496;-83
2023/01/16 11:06:14;;;;;;;4.53;2.90;;;;;;;;;;764069;184;623479;-82
2023/01/16 11:08:40;;;;;;;3.43;2.50;;;;;;;;;;762906;181;630879;-80
2023/01/16 11:18:27;;;;;;;4.80;2.77;;;;;;;;;;768486;182;631194;-82
2023/01/16 11:18:28;;;;;;;4.70;2.10;;;;;;;;;;762986;181;634565;-81
2023/01/16 11:18:32;;;;;;;4.60;2.60;;;;;;;;;;760617;183;640124;-82
2023/01/16 11:21:00;;;;;;;4.87;2.60;;;;;;;;;;767118;183;711763;-82
2023/01/16 11:23:25;;;;;;;5.63;2.70;;;;;;;;;;763097;183;632907;-82
2023/01/16 11:25:51;;;;;;;3.80;2.40;;;;;;;;;;767836;181;638402;-81
2023/01/16 11:28:17;;;;;;;4.37;2.70;;;;;;;;;;768321;181;630118;-81
2023/01/16 11:30:43;;;;;;;5.27;2.50;;;;;;;;;;764527;182;816142;-81
2023/01/16 11:33:19;;;;;;;4.00;2.60;;;;;;;;;;755285;183;626729;-80
2023/01/16 11:35:47;;;;;;;7.35;2.95;;;;;;;;;;751814;186;1169076;-81
2023/01/16 11:38:14;;;;;;;5.68;3.45;;;;;;;;;;753849;186;631420;-82
2023/01/16 11:40:39;;;;;;;6.13;2.83;;;;;;;;;;744029;188;649203;-81
2023/01/16 11:50:40;;;;;;;4.67;2.80;;;;;;;;;;769563;182;647552;-79
2023/01/16 11:53:06;;;;;;;5.77;2.43;;;;;;;;;;766618;181;623732;-81
2023/01/16 11:55:35;;;;;;;4.83;2.60;;;;;;;;;;765816;181;641186;-80
2023/01/16 11:58:02;;;;;;;6.37;2.93;;;;;;;;;;769931;183;664496;-83
2023/01/16 12:00:28;;;;;;;4.53;2.80;;;;;;;;;;763835;183;634019;-81
2023/01/16 12:02:54;;;;;;;4.70;2.93;;;;;;;;;;762541;182;663598;-80
2023/01/16 12:08:20;;;;;;;3.30;2.20;;;;;;;;;;765741;183;624290;-83
2023/01/16 12:10:42;;;;;;;4.37;2.60;;;;;;;;;;763292;181;637832;-81
2023/01/16 12:15:42;;;;;;;6.17;2.67;;;;;;;;;;765725;182;711529;-81
2023/01/16 12:18:13;;;;;;;5.90;2.40;;;;;;;;;;763846;181;656134;-82
2023/01/16 12:20:39;;;;;;;5.97;2.60;;;;;;;;;;753675;187;648030;-82
2023/01/16 12:23:11;;;;;;;6.00;3.27;;;;;;;;;;755181;186;680376;-82
2023/01/16 12:25:39;;;;;;;4.80;3.15;;;;;;;;;;759989;183;642881;-78
2023/01/16 12:28:09;;;;;;;4.57;2.70;;;;;;;;;;763009;183;649210;-77
2023/01/16 12:30:37;;;;;;;7.60;3.60;;;;;;;;;;764683;183;631964;-78
2023/01/16 12:33:11;;;;;;;4.53;2.83;;;;;;;;;;761955;184;635288;-80
2023/01/16 12:35:33;;;;;;;6.00;2.90;;;;;;;;;;751703;182;672762;-79
2023/01/16 12:38:04;;;;;;;5.90;3.50;;;;;;;;;;764420;180;883552;-81
2023/01/16 12:40:29;;;;;;;7.10;3.50;;;;;;;;;;766332;183;631927;-80
2023/01/16 12:45:27;;;;;;;6.20;3.40;;;;;;;;;;762662;184;630129;-80
2023/01/16 12:47:53;;;;;;;6.47;3.50;;;;;;;;;;761641;184;633231;-79
2023/01/16 12:50:19;;;;;;;5.07;3.10;;;;;;;;;;767856;184;630002;-80
2023/01/16 12:52:49;;;;;;;4.27;3.47;;;;;;;;;;763127;183;628275;-79
2023/01/16 12:55:18;;;;;;;5.17;3.63;;;;;;;;;;751835;185;647961;-80
2023/01/16 12:58:00;;;;;;;6.60;3.70;;;;;;;;;;751458;187;632583;-78
2023/01/16 13:00:26;;;;;;;5.93;3.20;;;;;;;;;;754379;184;638475;-81
2023/01/16 13:02:51;;;;;;;5.43;3.20;;;;;;;;;;767337;181;635402;-81
2023/01/16 13:05:18;;;;;;;6.67;3.33;;;;;;;;;;746165;186;626746;-80
2023/01/16 13:07:43;;;;;;;6.30;3.73;;;;;;;;;;744571;188;636548;-80
2023/01/16 13:15:25;;;;;;;6.20;4.17;;;;;;;;;;757316;184;633446;-81
2023/01/16 13:17:52;;;;;;;6.47;3.60;;;;;;;;;;752711;184;628616;-81
2023/01/16 13:20:18;;;;;;;5.90;3.23;;;;;;;;;;763675;183;642626;-83
2023/01/16 13:22:46;;;;;;;10.13;3.73;;;;;;;;;;765044;183;897056;-80
2023/01/16 13:25:18;;;;;;;5.10;2.87;;;;;;;;;;745174;183;638133;-81
2023/01/16 13:27:44;;;;;;;5.70;2.87;;;;;;;;;;764972;181;641494;-81
2023/01/16 13:30:11;;;;;;;4.87;2.67;;;;;;;;;;766948;183;635080;-83
2023/01/16 13:32:37;;;;;;;7.13;2.60;;;;;;;;;;771287;182;623354;-81
2023/01/16 13:35:02;;;;;;;4.13;2.50;;;;;;;;;;764414;181;622271;-83
2023/01/16 13:37:36;;;;;;;4.97;2.70;;;;;;;;;;762392;181;629510;-80
2023/01/16 13:40:05;;;;;;;5.13;3.27;;;;;;;;;;763737;182;628003;-82
2023/01/16 13:42:31;;;;;;;5.50;3.17;;;;;;;;;;765973;184;632304;-82
2023/01/16 13:47:28;;;;;;;3.03;1.90;;;;;;;;;;764036;181;636484;-81
2023/01/16 13:49:54;;;;;;;3.90;1.90;;;;;;;;;;763404;184;647482;-82
2023/01/16 13:52:20;;;;;;;3.17;1.73;;;;;;;;;;767172;184;642506;-82
2023/01/16 13:54:46;;;;;;;3.10;1.50;;;;;;;;;;767449;183;624813;-81
2023/01/16 13:57:20;;;;;;;4.13;1.67;;;;;;;;;;767109;180;622769;-81
2023/01/16 13:59:46;;;;;;;3.27;2.00;;;;;;;;;;765906;183;624367;-81
2023/01/16 14:02:18;;;;;;;4.30;2.67;;;;;;;;;;768575;184;638382;-82
2023/01/16 14:04:44;;;;;;;3.60;2.23;;;;;;;;;;762427;180;810449;-80
2023/01/16 14:09:47;;;;;;;3.50;2.20;;;;;;;;;;762853;184;623910;-81
2023/01/16 14:12:21;;;;;;;3.20;2.15;;;;;;;;;;766297;180;1134320;-80
2023/01/16 14:17:19;;;;;;;4.03;2.37;;;;;;;;;;760224;184;808282;-82
2023/01/16 14:19:51;;;;;;;4.40;2.20;;;;;;;;;;763038;182;636657;-81
2023/01/16 14:24:58;;;;;;;4.57;2.60;;;;;;;;;;752819;184;622246;-82
2023/01/16 14:27:24;;;;;;;4.37;2.70;;;;;;;;;;750727;186;636746;-81
2023/01/16 14:29:51;;;;;;;3.83;2.20;;;;;;;;;;752669;186;625806;-80
2023/01/16 14:32:16;;;;;;;4.33;3.00;;;;;;;;;;773790;180;27553;-80
2023/01/16 14:34:52;;;;;;;6.03;4.07;;;;;;;;;;758696;183;610502;-82
2023/01/16 14:37:24;;;;;;;4.67;3.17;;;;;;;;;;773075;179;622148;-81
2023/01/16 14:39:49;;;;;;;5.57;2.77;;;;;;;;;;747960;185;635369;-81
2023/01/16 14:55:15;;;;;;;6.43;2.97;;;;;;;;;;751326;186;1012344;-80
2023/01/16 14:57:41;;;;;;;11.43;3.87;;;;;;;;;;763947;183;673003;-79
2023/01/16 15:00:12;;;;;;;7.30;4.47;;;;;;;;;;766191;183;628977;-81
2023/01/16 15:02:37;;;;;;;4.27;3.03;;;;;;;;;;764552;183;628072;-82
2023/01/16 15:05:06;;;;;;;5.20;2.87;;;;;;;;;;761422;183;637640;-82
2023/01/16 15:07:31;;;;;;;10.80;4.73;;;;;;;;;;764397;182;623804;-79
2023/01/16 15:09:57;;;;;;;21.50;11.73;;;;;;;;;;763111;184;611275;-82
2023/01/16 15:12:23;;;;;;;6.13;3.90;;;;;;;;;;748008;183;626030;-82
2023/01/16 15:14:51;;;;;;;15.30;5.23;;;;;;;;;;758301;183;627914;-83
2023/01/16 15:22:40;;;;;;;6.00;4.30;;;;;;;;;;769953;184;624850;-80
2023/01/16 15:25:06;;;;;;;11.37;7.50;;;;;;;;;;765893;183;625640;-82
2023/01/16 15:27:32;;;;;;;19.80;12.10;;;;;;;;;;765785;183;643343;-80
2023/01/16 15:29:59;;;;;;;9.77;7.40;;;;;;;;;;764266;182;627211;-81
2023/01/16 15:32:24;;;;;;;10.00;5.60;;;;;;;;;;759312;183;635677;-81
2023/01/16 15:35:09;;;;;;;12.07;7.00;;;;;;;;;;760205;183;627131;-82
2023/01/16 15:37:35;;;;;;;15.10;8.10;;;;;;;;;;751551;184;625505;-81
2023/01/16 15:40:00;;;;;;;12.47;6.73;;;;;;;;;;765104;184;683512;-82
2023/01/16 15:47:37;;;;;;;7.10;5.20;;;;;;;;;;763185;181;627141;-79
2023/01/16 15:50:21;;;;;;;10.83;6.00;;;;;;;;;;755401;183;1631197;-80
2023/01/16 15:52:47;;;;;;;16.37;7.73;;;;;;;;;;764680;184;698548;-80